Time;durP1;ratioP1;P1;durP2;ratioP2;P2;SDS_P1;SDS_P2;PMS_P1;PMS_P2;Temp;Humidity;BMP_temperature;BMP_pressure;BME280_temperature;BME280_humidity;BME280_pressure;Samples;Min_cycle;Max_cycle;Signal;HPM_P1;HPM_P2
2021/11/24 00:01:20;;;;;;;;;;;4.10;59.00;;;;;;5095105;28;19908;-68
2021/11/24 00:03:45;;;;;;;;;;;4.10;59.00;;;;;;5093357;28;19943;-68
2021/11/24 00:06:11;;;;;;;;;;;4.10;59.00;;;;;;5069619;28;19927;-68
2021/11/24 00:08:36;;;;;;;;;;;4.10;59.30;;;;;;5081308;28;20365;-68
2021/11/24 00:11:02;;;;;;;;;;;4.10;59.10;;;;;;5094163;28;19919;-68
2021/11/24 00:13:28;;;;;;;;;;;4.10;59.10;;;;;;5093824;28;20289;-68
2021/11/24 00:15:53;;;;;;;;;;;4.00;59.10;;;;;;5092884;28;20319;-68
2021/11/24 00:18:19;;;;;;;;;;;4.00;59.10;;;;;;5064562;28;19960;-68
2021/11/24 00:20:44;;;;;;;;;;;4.00;59.10;;;;;;5073779;28;20350;-68
2021/11/24 00:23:10;;;;;;;;;;;4.00;59.10;;;;;;5075669;28;19916;-68
2021/11/24 00:25:36;;;;;;;;;;;4.00;59.20;;;;;;5075675;28;19908;-68
2021/11/24 00:28:01;;;;;;;;;;;3.90;59.20;;;;;;5093633;28;19912;-67
2021/11/24 00:30:27;;;;;;;;;;;3.90;59.20;;;;;;5093784;28;19908;-67
2021/11/24 00:32:55;;;;;;;;;;;3.90;59.30;;;;;;5091919;28;19916;-67
2021/11/24 00:35:21;;;;;;;;;;;3.90;59.30;;;;;;5093595;28;19919;-68
2021/11/24 00:37:46;;;;;;;;;;;3.90;59.30;;;;;;5075872;28;19915;-68
2021/11/24 00:40:12;;;;;;;;;;;3.90;59.20;;;;;;5073275;28;19912;-67
2021/11/24 00:42:38;;;;;;;;;;;3.90;59.30;;;;;;5073135;28;19909;-67
2021/11/24 00:45:04;;;;;;;;;;;3.90;59.30;;;;;;5073178;28;20361;-67
2021/11/24 00:47:29;;;;;;;;;;;3.80;59.20;;;;;;5082722;28;19927;-68
2021/11/24 00:49:55;;;;;;;;;;;3.80;59.20;;;;;;5093297;28;19908;-68
2021/11/24 00:52:21;;;;;;;;;;;3.80;59.30;;;;;;5093341;28;19912;-68
2021/11/24 00:54:46;;;;;;;;;;;3.80;59.30;;;;;;5093275;28;19915;-67
2021/11/24 00:57:12;;;;;;;;;;;3.80;59.30;;;;;;5085169;28;20309;-67
2021/11/24 00:59:37;;;;;;;;;;;3.80;59.30;;;;;;5072950;28;19909;-67
2021/11/24 01:02:03;;;;;;;;;;;3.80;59.40;;;;;;5072907;28;20384;-67
2021/11/24 01:04:29;;;;;;;;;;;3.80;59.90;;;;;;5073174;28;19912;-67
2021/11/24 01:06:54;;;;;;;;;;;3.70;59.30;;;;;;5072436;28;19974;-67
2021/11/24 01:09:20;;;;;;;;;;;3.70;59.30;;;;;;5072732;28;19909;-67
2021/11/24 01:11:46;;;;;;;;;;;3.70;59.30;;;;;;5053646;28;19912;-67
2021/11/24 01:14:11;;;;;;;;;;;3.70;59.40;;;;;;5072395;28;19927;-67
2021/11/24 01:16:37;;;;;;;;;;;3.70;59.40;;;;;;5072604;28;20441;-68
2021/11/24 01:19:03;;;;;;;;;;;3.70;59.40;;;;;;5072603;28;19912;-68
2021/11/24 01:21:28;;;;;;;;;;;3.70;59.40;;;;;;5061773;28;19935;-67
2021/11/24 01:23:54;;;;;;;;;;;3.70;59.50;;;;;;5093086;28;19908;-68
2021/11/24 01:26:20;;;;;;;;;;;3.70;59.50;;;;;;5092909;28;19956;-68
2021/11/24 01:28:45;;;;;;;;;;;3.60;59.50;;;;;;5093582;28;19963;-68
2021/11/24 01:31:11;;;;;;;;;;;3.60;59.50;;;;;;5094060;28;19987;-67
2021/11/24 01:33:36;;;;;;;;;;;3.60;59.50;;;;;;5093428;28;20299;-67
2021/11/24 01:36:03;;;;;;;;;;;3.60;59.50;;;;;;5070582;28;19913;-67
2021/11/24 01:38:28;;;;;;;;;;;3.60;59.50;;;;;;5055674;28;19912;-67
2021/11/24 01:40:54;;;;;;;;;;;3.60;59.50;;;;;;5072919;28;19966;-67
2021/11/24 01:43:20;;;;;;;;;;;3.60;59.50;;;;;;5073021;28;19916;-67
2021/11/24 01:45:46;;;;;;;;;;;3.60;59.50;;;;;;5073010;28;19955;-68
2021/11/24 01:48:11;;;;;;;;;;;3.60;59.50;;;;;;5072826;28;19913;-68
2021/11/24 01:50:37;;;;;;;;;;;3.50;59.50;;;;;;5072872;28;19958;-70
2021/11/24 01:53:03;;;;;;;;;;;3.50;59.50;;;;;;5068757;28;20050;-67
2021/11/24 01:55:29;;;;;;;;;;;3.50;59.60;;;;;;5093023;28;19913;-67
2021/11/24 01:57:54;;;;;;;;;;;3.50;59.60;;;;;;5092951;28;19912;-68
2021/11/24 02:00:25;;;;;;;;;;;3.50;59.60;;;;;;5092922;28;20310;-68
2021/11/24 02:02:51;;;;;;;;;;;3.50;59.70;;;;;;5092782;28;19908;-67
2021/11/24 02:05:17;;;;;;;;;;;3.50;59.70;;;;;;5092692;28;19930;-67
2021/11/24 02:07:42;;;;;;;;;;;3.50;59.70;;;;;;5083399;28;19918;-67
2021/11/24 02:10:08;;;;;;;;;;;3.50;59.70;;;;;;5092636;28;19912;-67
2021/11/24 02:12:34;;;;;;;;;;;3.50;59.70;;;;;;5092571;28;19958;-69
2021/11/24 02:14:59;;;;;;;;;;;3.50;59.70;;;;;;5092440;28;19967;-67
2021/11/24 02:17:25;;;;;;;;;;;3.50;59.70;;;;;;5092514;28;20440;-67
2021/11/24 02:19:51;;;;;;;;;;;3.50;59.60;;;;;;5092551;28;20388;-67
2021/11/24 02:22:16;;;;;;;;;;;3.40;59.70;;;;;;5092089;28;19915;-67
2021/11/24 02:24:44;;;;;;;;;;;3.40;59.90;;;;;;5072236;28;20373;-68
2021/11/24 02:27:11;;;;;;;;;;;3.50;60.00;;;;;;5073057;28;19959;-67
2021/11/24 02:29:37;;;;;;;;;;;3.40;60.00;;;;;;5072166;28;19908;-67
2021/11/24 02:32:03;;;;;;;;;;;3.50;60.20;;;;;;5072164;28;20004;-67
2021/11/24 02:34:29;;;;;;;;;;;3.50;60.20;;;;;;5072179;28;19912;-67
2021/11/24 02:36:56;;;;;;;;;;;3.50;60.20;;;;;;5071862;28;19909;-67
2021/11/24 02:39:22;;;;;;;;;;;3.40;60.10;;;;;;5069077;28;19920;-67
2021/11/24 02:41:47;;;;;;;;;;;3.40;60.90;;;;;;5072051;28;20290;-67
2021/11/24 02:44:34;;;;;;;;;;;3.40;60.00;;;;;;5072177;28;19920;-67
2021/11/24 02:47:11;;;;;;;;;;;3.40;60.00;;;;;;5072116;28;19912;-67
2021/11/24 02:49:38;;;;;;;;;;;3.40;60.00;;;;;;5071988;28;19959;-67
2021/11/24 02:52:04;;;;;;;;;;;3.30;59.90;;;;;;5072010;28;19908;-67
2021/11/24 02:54:30;;;;;;;;;;;3.30;60.00;;;;;;5040945;28;19912;-67
2021/11/24 02:56:58;;;;;;;;;;;3.30;60.00;;;;;;5051958;28;20290;-67
2021/11/24 02:59:23;;;;;;;;;;;3.30;59.90;;;;;;5051920;28;19952;-67
2021/11/24 03:01:50;;;;;;;;;;;3.30;59.90;;;;;;5051968;28;19994;-67
2021/11/24 03:04:16;;;;;;;;;;;3.30;59.90;;;;;;5033928;28;19912;-68
2021/11/24 03:06:41;;;;;;;;;;;3.20;59.90;;;;;;5051709;28;19917;-68
2021/11/24 03:09:07;;;;;;;;;;;3.20;59.90;;;;;;5051629;28;19970;-68
2021/11/24 03:11:33;;;;;;;;;;;3.20;59.90;;;;;;5051842;28;19909;-68
2021/11/24 03:13:58;;;;;;;;;;;3.20;60.00;;;;;;5051636;28;19996;-68
2021/11/24 03:16:24;;;;;;;;;;;3.20;60.00;;;;;;5051768;28;19909;-68
2021/11/24 03:18:50;;;;;;;;;;;3.20;60.00;;;;;;5050528;28;19909;-68
2021/11/24 03:21:15;;;;;;;;;;;3.20;60.10;;;;;;5050414;28;20255;-68
2021/11/24 03:23:41;;;;;;;;;;;3.20;60.00;;;;;;5050358;28;19912;-68
2021/11/24 03:26:07;;;;;;;;;;;3.10;60.00;;;;;;5069582;28;19959;-68
2021/11/24 03:28:32;;;;;;;;;;;3.10;60.00;;;;;;5071620;28;19916;-68
2021/11/24 03:30:58;;;;;;;;;;;3.10;60.00;;;;;;5071576;28;19920;-67
2021/11/24 03:33:23;;;;;;;;;;;3.10;60.10;;;;;;5071303;28;19916;-67
2021/11/24 03:35:49;;;;;;;;;;;3.10;60.10;;;;;;5053680;28;19908;-67
2021/11/24 03:38:15;;;;;;;;;;;3.10;60.20;;;;;;5053248;28;20010;-67
2021/11/24 03:40:40;;;;;;;;;;;3.10;60.20;;;;;;5077801;28;19912;-67
2021/11/24 03:43:06;;;;;;;;;;;3.10;60.40;;;;;;5091758;28;19908;-67
2021/11/24 03:45:34;;;;;;;;;;;3.10;60.50;;;;;;5091791;28;19908;-68
2021/11/24 03:48:00;;;;;;;;;;;3.10;60.60;;;;;;5091608;28;20277;-67
2021/11/24 03:50:26;;;;;;;;;;;3.20;60.70;;;;;;5095003;28;19917;-68
2021/11/24 03:52:52;;;;;;;;;;;3.20;60.90;;;;;;5095390;28;20290;-67
2021/11/24 03:55:18;;;;;;;;;;;3.20;60.90;;;;;;5093701;28;19916;-68
2021/11/24 03:57:44;;;;;;;;;;;3.20;60.90;;;;;;5077878;28;20313;-68
2021/11/24 04:00:15;;;;;;;;;;;3.20;60.90;;;;;;5095288;28;19912;-68
2021/11/24 04:02:41;;;;;;;;;;;3.20;60.90;;;;;;5095202;28;19936;-67
2021/11/24 04:05:08;;;;;;;;;;;3.20;60.80;;;;;;5073811;28;19975;-68
2021/11/24 04:07:34;;;;;;;;;;;3.20;60.80;;;;;;5074872;28;19962;-67
2021/11/24 04:09:59;;;;;;;;;;;3.20;60.80;;;;;;5074746;28;20365;-67
2021/11/24 04:12:25;;;;;;;;;;;3.20;60.80;;;;;;5074849;28;19958;-67
2021/11/24 04:14:50;;;;;;;;;;;3.20;60.80;;;;;;5074614;28;19927;-67
2021/11/24 04:17:16;;;;;;;;;;;3.20;60.80;;;;;;5074766;28;19913;-67
2021/11/24 04:19:41;;;;;;;;;;;3.20;60.80;;;;;;5074658;28;20365;-67
2021/11/24 04:22:07;;;;;;;;;;;3.20;60.70;;;;;;5075490;28;20011;-67
2021/11/24 04:24:34;;;;;;;;;;;3.20;60.70;;;;;;5074557;28;19916;-68
2021/11/24 04:26:59;;;;;;;;;;;3.20;60.80;;;;;;5056514;28;20278;-68
2021/11/24 04:29:25;;;;;;;;;;;3.20;60.90;;;;;;5074598;28;19916;-68
2021/11/24 04:31:50;;;;;;;;;;;3.10;61.00;;;;;;5074436;28;20327;-68
2021/11/24 04:34:16;;;;;;;;;;;3.20;61.10;;;;;;5074363;28;19928;-68
2021/11/24 04:36:42;;;;;;;;;;;3.10;61.10;;;;;;5080344;28;19912;-68
2021/11/24 04:39:07;;;;;;;;;;;3.10;61.10;;;;;;5074151;28;19908;-68
2021/11/24 04:41:33;;;;;;;;;;;3.10;61.20;;;;;;5054232;28;20000;-68
2021/11/24 04:43:59;;;;;;;;;;;3.10;61.20;;;;;;5054154;28;19967;-68
2021/11/24 04:46:24;;;;;;;;;;;3.10;61.10;;;;;;5054047;28;19996;-68
2021/11/24 04:48:50;;;;;;;;;;;3.10;61.00;;;;;;5054156;28;19909;-68
2021/11/24 04:51:15;;;;;;;;;;;3.10;61.00;;;;;;5053946;28;19916;-68
2021/11/24 04:53:41;;;;;;;;;;;3.10;61.10;;;;;;5094095;28;19912;-68
2021/11/24 04:56:07;;;;;;;;;;;3.10;61.20;;;;;;5094166;28;20342;-68
2021/11/24 04:58:37;;;;;;;;;;;3.10;61.20;;;;;;5093732;28;19923;-69
2021/11/24 05:01:03;;;;;;;;;;;3.00;61.10;;;;;;5093453;28;19909;-68
2021/11/24 05:03:28;;;;;;;;;;;3.00;61.10;;;;;;5094017;28;19915;-68
2021/11/24 05:05:54;;;;;;;;;;;3.00;61.30;;;;;;5093851;28;19957;-68
2021/11/24 05:08:19;;;;;;;;;;;3.00;61.40;;;;;;5080810;28;20251;-68
2021/11/24 05:10:46;;;;;;;;;;;3.00;61.40;;;;;;5054425;28;19916;-68
2021/11/24 05:13:12;;;;;;;;;;;3.00;62.10;;;;;;5065224;28;19979;-68
2021/11/24 05:15:40;;;;;;;;;;;3.00;61.30;;;;;;5055596;28;19920;-68
2021/11/24 05:18:08;;;;;;;;;;;3.00;61.30;;;;;;5073379;28;19909;-68
2021/11/24 05:20:34;;;;;;;;;;;3.00;61.30;;;;;;5073070;28;19917;-67
2021/11/24 05:23:04;;;;;;;;;;;3.00;61.40;;;;;;5074533;28;19916;-67
2021/11/24 05:25:30;;;;;;;;;;;2.90;61.30;;;;;;5072087;28;19908;-68
2021/11/24 05:27:55;;;;;;;;;;;2.90;61.40;;;;;;5072754;28;19912;-67
2021/11/24 05:30:22;;;;;;;;;;;2.90;61.40;;;;;;5055027;28;19962;-68
2021/11/24 05:32:47;;;;;;;;;;;2.90;61.40;;;;;;5072958;28;19912;-67
2021/11/24 05:35:13;;;;;;;;;;;2.90;62.10;;;;;;5073029;28;19916;-67
2021/11/24 05:37:39;;;;;;;;;;;2.80;61.20;;;;;;5077012;28;19924;-67
2021/11/24 05:40:05;;;;;;;;;;;2.80;61.30;;;;;;5092990;28;19908;-68
2021/11/24 05:42:30;;;;;;;;;;;2.80;61.30;;;;;;5077027;28;19909;-67
2021/11/24 05:45:11;;;;;;;;;;;2.80;61.30;;;;;;5072702;28;19908;-67
2021/11/24 05:47:58;;;;;;;;;;;2.80;61.40;;;;;;5072738;28;19916;-68
2021/11/24 05:50:25;;;;;;;;;;;2.70;61.40;;;;;;5072743;28;20370;-67
2021/11/24 05:52:51;;;;;;;;;;;2.80;61.50;;;;;;5073711;28;20007;-68
2021/11/24 05:55:16;;;;;;;;;;;2.70;61.40;;;;;;5072906;28;19951;-68
2021/11/24 05:57:42;;;;;;;;;;;2.70;61.30;;;;;;5072687;28;20349;-68
2021/11/24 06:00:08;;;;;;;;;;;2.70;61.30;;;;;;5072562;28;20388;-67
2021/11/24 06:02:34;;;;;;;;;;;2.70;61.40;;;;;;5072535;28;19974;-68
2021/11/24 06:04:59;;;;;;;;;;;2.70;61.50;;;;;;5072281;28;19912;-67
2021/11/24 06:07:25;;;;;;;;;;;2.70;61.60;;;;;;5072264;28;19913;-68
2021/11/24 06:09:50;;;;;;;;;;;2.70;61.60;;;;;;5053953;28;19913;-68
2021/11/24 06:12:16;;;;;;;;;;;2.70;61.50;;;;;;5051510;28;19959;-67
2021/11/24 06:14:43;;;;;;;;;;;2.70;61.60;;;;;;5053713;28;19920;-68
2021/11/24 06:17:10;;;;;;;;;;;2.70;61.70;;;;;;5072510;28;19916;-68
2021/11/24 06:19:36;;;;;;;;;;;2.70;62.00;;;;;;5072334;28;19912;-67
2021/11/24 06:22:01;;;;;;;;;;;2.80;62.30;;;;;;5072169;28;19923;-68
2021/11/24 06:24:27;;;;;;;;;;;2.90;62.60;;;;;;5091550;28;19977;-68
2021/11/24 06:26:52;;;;;;;;;;;2.90;63.50;;;;;;5092310;28;20357;-68
2021/11/24 06:29:18;;;;;;;;;;;3.00;62.80;;;;;;5092400;28;20002;-68
2021/11/24 06:31:44;;;;;;;;;;;3.10;62.80;;;;;;5092261;28;20203;-68
2021/11/24 06:34:09;;;;;;;;;;;3.20;62.90;;;;;;5075216;28;20281;-68
2021/11/24 06:36:35;;;;;;;;;;;3.30;63.00;;;;;;5071711;28;20378;-69
2021/11/24 06:39:02;;;;;;;;;;;3.30;62.90;;;;;;5071949;28;19936;-69
2021/11/24 06:41:27;;;;;;;;;;;3.40;63.00;;;;;;5064490;28;20011;-68
2021/11/24 06:43:53;;;;;;;;;;;3.50;62.90;;;;;;5033551;28;19999;-69
2021/11/24 06:46:18;;;;;;;;;;;3.60;62.90;;;;;;5033462;28;19916;-69
2021/11/24 06:48:44;;;;;;;;;;;3.70;62.80;;;;;;5073925;28;19919;-69
2021/11/24 06:51:10;;;;;;;;;;;3.80;62.80;;;;;;5092033;28;19921;-69
2021/11/24 06:53:36;;;;;;;;;;;3.90;62.80;;;;;;5092128;28;19994;-68
2021/11/24 06:56:02;;;;;;;;;;;4.00;62.80;;;;;;5092127;28;20010;-69
2021/11/24 06:58:28;;;;;;;;;;;4.00;62.60;;;;;;5092049;28;19909;-69
2021/11/24 07:00:54;;;;;;;;;;;4.10;62.50;;;;;;5092073;28;19908;-69
2021/11/24 07:03:19;;;;;;;;;;;4.20;62.40;;;;;;5089924;28;19908;-68
2021/11/24 07:05:45;;;;;;;;;;;4.20;62.30;;;;;;5092065;28;19912;-68
2021/11/24 07:08:11;;;;;;;;;;;4.30;62.20;;;;;;5092043;28;19919;-68
2021/11/24 07:10:37;;;;;;;;;;;4.30;62.10;;;;;;5066640;28;19944;-68
2021/11/24 07:13:02;;;;;;;;;;;4.30;62.00;;;;;;5051697;28;20004;-68
2021/11/24 07:15:28;;;;;;;;;;;4.40;62.00;;;;;;5051648;28;19913;-68
2021/11/24 07:17:54;;;;;;;;;;;4.40;62.70;;;;;;5051842;28;19913;-68
2021/11/24 07:20:19;;;;;;;;;;;4.50;61.90;;;;;;5084982;28;20285;-68
2021/11/24 07:22:45;;;;;;;;;;;4.50;61.80;;;;;;5091820;28;19915;-68
2021/11/24 07:25:11;;;;;;;;;;;4.60;61.70;;;;;;5095202;28;19991;-68
2021/11/24 07:27:37;;;;;;;;;;;4.60;61.60;;;;;;5077486;28;19916;-68
2021/11/24 07:30:03;;;;;;;;;;;4.70;62.30;;;;;;5075643;28;19908;-68
2021/11/24 07:32:29;;;;;;;;;;;4.70;62.10;;;;;;5075258;28;19909;-68
2021/11/24 07:37:43;;;;;;;;;;;4.80;61.30;;;;;;5092409;28;20381;-68
2021/11/24 07:40:10;;;;;;;;;;;4.80;61.20;;;;;;5066849;28;20258;-68
2021/11/24 07:42:35;;;;;;;;;;;4.90;61.20;;;;;;5076526;28;19908;-68
2021/11/24 07:45:01;;;;;;;;;;;4.90;61.20;;;;;;5074710;28;20437;-68
2021/11/24 07:47:27;;;;;;;;;;;5.00;61.20;;;;;;5074846;28;19912;-69
2021/11/24 07:49:53;;;;;;;;;;;5.00;61.20;;;;;;5075001;28;19908;-69
2021/11/24 07:52:19;;;;;;;;;;;5.10;61.40;;;;;;5075950;28;20374;-69
2021/11/24 07:54:44;;;;;;;;;;;5.20;61.10;;;;;;5074994;28;19909;-69
2021/11/24 07:57:10;;;;;;;;;;;5.20;60.90;;;;;;5074637;28;20323;-69
2021/11/24 07:59:37;;;;;;;;;;;5.20;60.70;;;;;;5074968;28;19920;-71
2021/11/24 08:02:03;;;;;;;;;;;5.30;60.60;;;;;;5075031;28;20384;-69
2021/11/24 08:04:29;;;;;;;;;;;5.30;61.20;;;;;;5076961;28;19912;-69
2021/11/24 08:06:59;;;;;;;;;;;5.40;60.50;;;;;;5074493;28;20281;-69
2021/11/24 08:09:25;;;;;;;;;;;5.40;60.50;;;;;;5074711;28;19999;-69
2021/11/24 08:11:50;;;;;;;;;;;5.50;60.60;;;;;;5075079;28;19999;-69
2021/11/24 08:14:16;;;;;;;;;;;5.60;60.60;;;;;;5074631;28;19920;-69
2021/11/24 08:16:41;;;;;;;;;;;5.70;60.60;;;;;;5040393;28;19917;-69
2021/11/24 08:19:07;;;;;;;;;;;5.70;60.40;;;;;;5035971;28;19940;-69
2021/11/24 08:21:33;;;;;;;;;;;5.80;60.20;;;;;;5047484;28;20385;-70
2021/11/24 08:23:58;;;;;;;;;;;5.80;60.10;;;;;;5053646;28;19905;-69
2021/11/24 08:26:24;;;;;;;;;;;5.80;59.90;;;;;;5053526;28;19916;-69
2021/11/24 08:28:50;;;;;;;;;;;5.90;59.80;;;;;;5053887;28;19909;-69
2021/11/24 08:31:15;;;;;;;;;;;5.90;59.70;;;;;;5051405;28;19914;-70
2021/11/24 08:33:41;;;;;;;;;;;5.90;59.60;;;;;;5053475;28;19960;-69
2021/11/24 08:36:07;;;;;;;;;;;5.90;59.50;;;;;;5052704;28;19908;-69
2021/11/24 08:38:33;;;;;;;;;;;5.90;59.50;;;;;;5053427;28;19909;-69
2021/11/24 08:40:58;;;;;;;;;;;5.90;59.40;;;;;;5053322;28;20281;-69
2021/11/24 08:43:24;;;;;;;;;;;6.00;59.30;;;;;;5053326;28;19912;-68
2021/11/24 08:45:50;;;;;;;;;;;5.90;59.20;;;;;;5068708;28;20263;-69
2021/11/24 08:48:15;;;;;;;;;;;6.00;59.20;;;;;;5050603;28;19939;-69
2021/11/24 08:50:41;;;;;;;;;;;6.00;59.20;;;;;;5046920;28;19917;-69
2021/11/24 08:53:07;;;;;;;;;;;6.00;59.10;;;;;;5032901;28;19909;-69
2021/11/24 08:55:32;;;;;;;;;;;6.10;59.20;;;;;;5033296;28;19957;-70
2021/11/24 08:58:00;;;;;;;;;;;6.10;59.10;;;;;;5048850;28;19979;-69
2021/11/24 09:00:25;;;;;;;;;;;6.10;59.00;;;;;;5015692;28;19967;-69
2021/11/24 09:02:52;;;;;;;;;;;6.10;59.00;;;;;;5033671;28;19913;-69
2021/11/24 09:05:19;;;;;;;;;;;6.10;59.00;;;;;;5034225;28;19919;-69
2021/11/24 09:07:47;;;;;;;;;;;6.20;59.20;;;;;;5033665;28;20393;-69
2021/11/24 09:10:13;;;;;;;;;;;6.20;59.20;;;;;;5015980;28;20432;-69
2021/11/24 09:12:39;;;;;;;;;;;6.30;59.20;;;;;;5033690;28;19909;-69
2021/11/24 09:15:05;;;;;;;;;;;6.40;59.20;;;;;;5055105;28;19921;-69
2021/11/24 09:17:31;;;;;;;;;;;6.40;59.10;;;;;;5093776;28;19918;-69
2021/11/24 09:19:56;;;;;;;;;;;6.50;59.10;;;;;;5093789;28;19999;-69
2021/11/24 09:22:22;;;;;;;;;;;6.60;59.00;;;;;;5093604;28;20280;-69
2021/11/24 09:24:52;;;;;;;;;;;6.60;58.80;;;;;;5061423;28;20349;-70
2021/11/24 09:27:28;;;;;;;;;;;6.70;58.80;;;;;;5073279;28;19962;-68
2021/11/24 09:29:53;;;;;;;;;;;6.70;58.70;;;;;;5073257;28;19908;-68
2021/11/24 09:32:19;;;;;;;;;;;6.80;58.60;;;;;;5074048;28;20380;-68
2021/11/24 09:34:45;;;;;;;;;;;6.80;58.40;;;;;;5073105;28;19919;-68
2021/11/24 09:37:10;;;;;;;;;;;6.90;58.40;;;;;;5073080;28;20408;-68
2021/11/24 09:39:36;;;;;;;;;;;6.90;58.30;;;;;;5073096;28;19939;-68
2021/11/24 09:42:03;;;;;;;;;;;6.90;58.30;;;;;;5073961;28;19904;-69
2021/11/24 09:44:30;;;;;;;;;;;6.90;58.20;;;;;;5073026;28;19958;-68
2021/11/24 09:46:56;;;;;;;;;;;7.00;58.30;;;;;;5074401;28;19916;-67
2021/11/24 09:49:22;;;;;;;;;;;7.10;58.20;;;;;;5067322;28;19939;-64
2021/11/24 09:51:48;;;;;;;;;;;7.10;58.20;;;;;;5047362;28;19952;-68
2021/11/24 09:54:14;;;;;;;;;;;7.20;58.00;;;;;;5055263;28;20257;-68
2021/11/24 09:56:41;;;;;;;;;;;7.20;58.00;;;;;;5073324;28;19909;-63
2021/11/24 09:59:07;;;;;;;;;;;7.30;58.00;;;;;;5073369;28;19909;-66
2021/11/24 10:01:33;;;;;;;;;;;7.30;57.90;;;;;;5073098;28;19915;-65
2021/11/24 10:04:12;;;;;;;;;;;7.40;57.90;;;;;;5079291;28;19912;-64
2021/11/24 10:06:41;;;;;;;;;;;7.40;57.80;;;;;;5092021;28;19912;-69
2021/11/24 10:09:08;;;;;;;;;;;7.50;57.70;;;;;;5073200;28;20377;-64
2021/11/24 10:11:34;;;;;;;;;;;7.60;57.60;;;;;;5073376;28;20050;-69
2021/11/24 10:14:00;;;;;;;;;;;7.60;57.60;;;;;;5072933;28;20389;-70
2021/11/24 10:16:27;;;;;;;;;;;7.60;57.50;;;;;;5074621;28;20332;-63
2021/11/24 10:18:57;;;;;;;;;;;7.70;58.00;;;;;;5093147;28;20003;-64
2021/11/24 10:21:22;;;;;;;;;;;7.70;57.40;;;;;;5075184;28;19934;-63
2021/11/24 10:23:49;;;;;;;;;;;7.80;57.30;;;;;;5093254;28;19914;-67
2021/11/24 10:26:14;;;;;;;;;;;7.80;57.20;;;;;;5093117;28;19908;-62
2021/11/24 10:28:40;;;;;;;;;;;7.80;56.90;;;;;;5081063;28;19912;-64
2021/11/24 10:31:21;;;;;;;;;;;7.80;56.90;;;;;;5073156;28;19908;-74
2021/11/24 10:33:47;;;;;;;;;;;7.90;57.20;;;;;;5072363;28;19912;-66
2021/11/24 10:36:13;;;;;;;;;;;8.00;57.40;;;;;;5072863;28;19973;-64
2021/11/24 10:38:40;;;;;;;;;;;8.10;57.30;;;;;;5072722;28;19909;-73
2021/11/24 10:41:06;;;;;;;;;;;8.20;57.30;;;;;;5072687;28;19931;-80
2021/11/24 10:43:46;;;;;;;;;;;8.20;57.10;;;;;;5051218;28;19916;-73
2021/11/24 10:46:14;;;;;;;;;;;8.30;57.00;;;;;;5052752;28;19909;-74
2021/11/24 10:48:40;;;;;;;;;;;8.30;56.80;;;;;;5068651;28;20385;-72
2021/11/24 10:51:26;;;;;;;;;;;8.30;56.70;;;;;;5072687;28;19916;-71
2021/11/24 10:54:10;;;;;;;;;;;8.30;56.60;;;;;;5072284;28;19909;-66
2021/11/24 10:56:56;;;;;;;;;;;8.40;56.60;;;;;;5052647;28;19909;-66
2021/11/24 10:59:21;;;;;;;;;;;8.40;56.50;;;;;;5062370;28;19994;-65
2021/11/24 11:01:47;;;;;;;;;;;8.40;56.70;;;;;;5076871;28;20369;-70
2021/11/24 11:04:13;;;;;;;;;;;8.40;56.60;;;;;;5093681;28;19912;-67
2021/11/24 11:06:41;;;;;;;;;;;8.50;56.60;;;;;;5091316;28;19924;-69
2021/11/24 11:09:07;;;;;;;;;;;8.50;56.50;;;;;;5076626;28;19915;-72
2021/11/24 11:11:34;;;;;;;;;;;8.50;56.40;;;;;;5076911;28;19909;-72
2021/11/24 11:14:32;;;;;;;;;;;8.50;56.30;;;;;;5076551;28;19921;-64
2021/11/24 11:16:58;;;;;;;;;;;8.50;56.30;;;;;;5034272;28;20317;-62
2021/11/24 11:19:43;;;;;;;;;;;8.50;56.20;;;;;;5034417;28;19948;-66
2021/11/24 11:22:10;;;;;;;;;;;8.40;56.10;;;;;;5034407;28;20397;-64
2021/11/24 11:24:35;;;;;;;;;;;8.50;56.20;;;;;;5034358;28;19909;-66
2021/11/24 11:27:01;;;;;;;;;;;8.50;56.30;;;;;;5034093;28;19920;-65
2021/11/24 11:29:28;;;;;;;;;;;8.50;56.40;;;;;;5034331;28;20275;-66
2021/11/24 11:31:54;;;;;;;;;;;8.60;56.40;;;;;;5033769;28;19935;-65
2021/11/24 11:34:20;;;;;;;;;;;8.60;56.20;;;;;;5033981;28;20457;-66
2021/11/24 11:36:46;;;;;;;;;;;8.60;56.10;;;;;;5017387;28;19944;-65
2021/11/24 11:39:11;;;;;;;;;;;8.60;56.10;;;;;;5033926;28;19937;-66
2021/11/24 11:41:38;;;;;;;;;;;8.60;56.10;;;;;;5034013;28;19959;-66
2021/11/24 11:44:04;;;;;;;;;;;8.60;56.10;;;;;;5033342;28;19919;-66
2021/11/24 11:46:34;;;;;;;;;;;8.50;55.90;;;;;;5033842;28;19909;-68
2021/11/24 11:49:07;;;;;;;;;;;8.50;55.80;;;;;;5033599;28;19909;-69
2021/11/24 11:51:37;;;;;;;;;;;8.50;55.70;;;;;;5037795;28;19916;-68
2021/11/24 11:54:03;;;;;;;;;;;8.40;55.60;;;;;;5084608;28;20019;-66
2021/11/24 11:56:49;;;;;;;;;;;8.30;55.50;;;;;;5091899;28;20374;-69
2021/11/24 11:59:16;;;;;;;;;;;8.20;55.50;;;;;;5075441;28;19915;-70
2021/11/24 12:01:42;;;;;;;;;;;8.00;55.60;;;;;;5048441;28;19992;-70
2021/11/24 12:04:10;;;;;;;;;;;7.90;55.70;;;;;;5050104;28;19999;-63
2021/11/24 12:06:51;;;;;;;;;;;7.80;55.80;;;;;;5075209;28;20258;-66
2021/11/24 12:09:25;;;;;;;;;;;7.70;56.00;;;;;;5076131;28;19912;-61
2021/11/24 12:14:43;;;;;;;;;;;7.50;56.30;;;;;;5077683;28;19927;-67
2021/11/24 12:17:27;;;;;;;;;;;7.30;56.40;;;;;;5067306;28;19959;-65
2021/11/24 12:19:55;;;;;;;;;;;7.30;56.70;;;;;;5082182;28;22293;-67
2021/11/24 12:22:39;;;;;;;;;;;7.20;56.90;;;;;;5086583;28;20003;-67
2021/11/24 12:25:05;;;;;;;;;;;7.10;57.00;;;;;;5090056;28;20265;-65
2021/11/24 12:27:49;;;;;;;;;;;7.10;57.20;;;;;;5088991;28;19923;-66
2021/11/24 12:30:15;;;;;;;;;;;7.00;57.30;;;;;;5059160;28;19909;-66
2021/11/24 12:32:40;;;;;;;;;;;7.00;57.50;;;;;;5066851;28;19938;-66
2021/11/24 12:35:15;;;;;;;;;;;6.90;57.60;;;;;;5074693;28;20362;-66
2021/11/24 12:37:41;;;;;;;;;;;6.90;57.70;;;;;;5075053;28;19916;-66
2021/11/24 12:40:06;;;;;;;;;;;6.90;57.80;;;;;;5079941;28;19908;-66
2021/11/24 12:42:32;;;;;;;;;;;6.90;57.80;;;;;;5077391;28;20004;-67
2021/11/24 12:44:58;;;;;;;;;;;6.90;57.90;;;;;;5074705;28;19909;-67
2021/11/24 12:47:23;;;;;;;;;;;6.90;58.00;;;;;;5074861;28;19948;-66
2021/11/24 12:49:49;;;;;;;;;;;6.90;58.10;;;;;;5056855;28;19915;-66
2021/11/24 12:52:15;;;;;;;;;;;6.90;58.20;;;;;;5074767;28;19912;-66
2021/11/24 12:54:42;;;;;;;;;;;6.90;58.30;;;;;;5074819;28;19934;-66
2021/11/24 12:57:09;;;;;;;;;;;6.90;58.30;;;;;;5074707;28;20003;-66
2021/11/24 12:59:36;;;;;;;;;;;7.00;58.40;;;;;;5074740;28;19909;-66
2021/11/24 13:02:06;;;;;;;;;;;7.00;58.40;;;;;;5074611;28;20008;-67
2021/11/24 13:04:39;;;;;;;;;;;7.00;58.40;;;;;;5074338;28;19919;-66
2021/11/24 13:07:06;;;;;;;;;;;7.00;58.40;;;;;;5074711;28;19913;-67
2021/11/24 13:09:36;;;;;;;;;;;7.10;58.50;;;;;;5074371;28;19909;-67
2021/11/24 13:12:08;;;;;;;;;;;7.10;58.50;;;;;;5074480;28;19905;-66
2021/11/24 13:14:36;;;;;;;;;;;7.10;58.50;;;;;;5074239;28;20294;-67
2021/11/24 13:17:28;;;;;;;;;;;7.10;58.40;;;;;;5056312;28;20380;-68
2021/11/24 13:20:03;;;;;;;;;;;7.00;58.40;;;;;;5056274;28;19908;-67
2021/11/24 13:22:44;;;;;;;;;;;7.00;58.40;;;;;;5073606;28;20388;-66
2021/11/24 13:25:12;;;;;;;;;;;7.00;58.50;;;;;;5074118;28;19916;-66
2021/11/24 13:27:41;;;;;;;;;;;7.00;58.50;;;;;;5074083;28;19997;-65
2021/11/24 13:30:07;;;;;;;;;;;7.00;58.60;;;;;;5074052;28;19995;-66
2021/11/24 13:32:35;;;;;;;;;;;7.00;58.60;;;;;;5074022;28;19908;-66
2021/11/24 13:35:03;;;;;;;;;;;7.00;58.60;;;;;;5073934;28;19908;-66
2021/11/24 13:37:30;;;;;;;;;;;7.00;58.60;;;;;;5055939;28;19909;-66
2021/11/24 13:39:57;;;;;;;;;;;7.00;58.60;;;;;;5073889;28;19909;-66
2021/11/24 13:42:23;;;;;;;;;;;7.00;58.60;;;;;;5073695;28;20397;-67
2021/11/24 13:44:50;;;;;;;;;;;7.00;58.60;;;;;;5073799;28;19909;-66
2021/11/24 13:47:20;;;;;;;;;;;7.00;58.70;;;;;;5073708;28;19912;-66
2021/11/24 13:49:46;;;;;;;;;;;6.90;58.60;;;;;;5055736;28;19997;-66
2021/11/24 13:52:14;;;;;;;;;;;6.90;58.60;;;;;;5073637;28;19961;-66
2021/11/24 13:54:40;;;;;;;;;;;6.90;58.70;;;;;;5055625;28;20385;-67
2021/11/24 13:57:06;;;;;;;;;;;6.90;58.70;;;;;;5073549;28;19915;-67
2021/11/24 13:59:33;;;;;;;;;;;6.90;58.70;;;;;;5073677;28;19999;-67
2021/11/24 14:02:06;;;;;;;;;;;6.80;58.70;;;;;;5073455;28;19961;-67
2021/11/24 14:04:34;;;;;;;;;;;6.80;58.60;;;;;;5055448;28;19962;-67
2021/11/24 14:07:05;;;;;;;;;;;6.80;58.70;;;;;;5055349;28;20377;-67
2021/11/24 14:09:33;;;;;;;;;;;6.70;58.60;;;;;;5073363;28;19908;-67
2021/11/24 14:12:06;;;;;;;;;;;6.70;58.60;;;;;;5073426;28;19905;-66
2021/11/24 14:14:57;;;;;;;;;;;6.70;58.60;;;;;;5073103;28;20385;-67
2021/11/24 14:17:42;;;;;;;;;;;6.60;58.60;;;;;;5055279;28;20329;-66
2021/11/24 14:20:20;;;;;;;;;;;6.50;58.70;;;;;;5073108;28;19908;-67
2021/11/24 14:23:03;;;;;;;;;;;6.50;58.80;;;;;;5073077;28;19908;-67
2021/11/24 14:25:53;;;;;;;;;;;6.40;58.80;;;;;;5073087;28;19908;-66
2021/11/24 14:28:23;;;;;;;;;;;6.40;58.90;;;;;;5073065;28;19913;-66
2021/11/24 14:30:50;;;;;;;;;;;6.40;59.00;;;;;;5073084;28;19995;-66
2021/11/24 14:33:18;;;;;;;;;;;6.30;59.00;;;;;;5072729;28;19991;-66
2021/11/24 14:35:44;;;;;;;;;;;6.30;59.10;;;;;;5072957;28;19908;-66
2021/11/24 14:38:11;;;;;;;;;;;6.20;59.00;;;;;;5073023;28;19957;-66